sensor_id;sensor_type;location;lat;lon;timestamp;P1;durP1;ratioP1;P2;durP2;ratioP2
1402;SDS011;696;48.546;9.896;2023-03-01T00:01:00;29.38;;;15.95;;
1402;SDS011;696;48.546;9.896;2023-03-01T00:03:26;28.73;;;14.85;;
1402;SDS011;696;48.546;9.896;2023-03-01T00:05:52;25.77;;;15.13;;
1402;SDS011;696;48.546;9.896;2023-03-01T00:08:17;23.35;;;13.93;;
1402;SDS011;696;48.546;9.896;2023-03-01T00:10:42;25.13;;;14.88;;
1402;SDS011;696;48.546;9.896;2023-03-01T00:13:08;25.65;;;14.20;;
1402;SDS011;696;48.546;9.896;2023-03-01T00:15:33;31.85;;;15.52;;
1402;SDS011;696;48.546;9.896;2023-03-01T00:18:03;27.95;;;14.90;;
1402;SDS011;696;48.546;9.896;2023-03-01T00:20:28;25.67;;;15.07;;
1402;SDS011;696;48.546;9.896;2023-03-01T00:22:53;29.90;;;15.57;;
1402;SDS011;696;48.546;9.896;2023-03-01T00:25:19;29.60;;;15.60;;
1402;SDS011;696;48.546;9.896;2023-03-01T00:27:44;29.15;;;15.13;;
1402;SDS011;696;48.546;9.896;2023-03-01T00:30:11;33.22;;;14.43;;
1402;SDS011;696;48.546;9.896;2023-03-01T00:32:37;26.35;;;15.23;;
1402;SDS011;696;48.546;9.896;2023-03-01T00:35:02;46.50;;;16.80;;
1402;SDS011;696;48.546;9.896;2023-03-01T00:37:28;28.73;;;15.43;;
1402;SDS011;696;48.546;9.896;2023-03-01T00:39:53;26.58;;;14.85;;
1402;SDS011;696;48.546;9.896;2023-03-01T00:42:18;29.73;;;13.55;;
1402;SDS011;696;48.546;9.896;2023-03-01T00:44:44;22.65;;;13.48;;
1402;SDS011;696;48.546;9.896;2023-03-01T00:47:09;25.42;;;13.73;;
1402;SDS011;696;48.546;9.896;2023-03-01T00:49:35;32.17;;;15.32;;
1402;SDS011;696;48.546;9.896;2023-03-01T00:52:00;23.25;;;13.77;;
1402;SDS011;696;48.546;9.896;2023-03-01T00:54:25;27.40;;;15.05;;
1402;SDS011;696;48.546;9.896;2023-03-01T00:56:51;30.88;;;14.65;;
1402;SDS011;696;48.546;9.896;2023-03-01T00:59:16;24.05;;;14.20;;
1402;SDS011;696;48.546;9.896;2023-03-01T01:01:41;26.75;;;14.77;;
1402;SDS011;696;48.546;9.896;2023-03-01T01:04:08;26.48;;;14.40;;
1402;SDS011;696;48.546;9.896;2023-03-01T01:06:40;26.42;;;15.35;;
1402;SDS011;696;48.546;9.896;2023-03-01T01:09:08;22.02;;;13.25;;
1402;SDS011;696;48.546;9.896;2023-03-01T01:11:34;35.80;;;15.63;;
1402;SDS011;696;48.546;9.896;2023-03-01T01:14:01;28.65;;;15.52;;
1402;SDS011;696;48.546;9.896;2023-03-01T01:16:27;29.02;;;14.98;;
1402;SDS011;696;48.546;9.896;2023-03-01T01:18:53;33.15;;;16.42;;
1402;SDS011;696;48.546;9.896;2023-03-01T01:21:20;32.13;;;16.10;;
1402;SDS011;696;48.546;9.896;2023-03-01T01:23:47;30.52;;;15.82;;
1402;SDS011;696;48.546;9.896;2023-03-01T01:26:17;31.17;;;15.85;;
1402;SDS011;696;48.546;9.896;2023-03-01T01:28:45;27.92;;;16.58;;
1402;SDS011;696;48.546;9.896;2023-03-01T01:31:11;24.58;;;15.30;;
1402;SDS011;696;48.546;9.896;2023-03-01T01:33:36;35.33;;;16.85;;
1402;SDS011;696;48.546;9.896;2023-03-01T01:36:02;31.88;;;15.45;;
1402;SDS011;696;48.546;9.896;2023-03-01T01:38:29;23.42;;;14.95;;
1402;SDS011;696;48.546;9.896;2023-03-01T01:40:54;29.13;;;15.68;;
1402;SDS011;696;48.546;9.896;2023-03-01T01:43:24;26.85;;;14.77;;
1402;SDS011;696;48.546;9.896;2023-03-01T01:45:52;35.50;;;15.73;;
1402;SDS011;696;48.546;9.896;2023-03-01T01:48:21;25.58;;;14.90;;
1402;SDS011;696;48.546;9.896;2023-03-01T01:50:51;25.67;;;15.10;;
1402;SDS011;696;48.546;9.896;2023-03-01T01:53:20;32.75;;;15.25;;
1402;SDS011;696;48.546;9.896;2023-03-01T01:55:47;27.50;;;14.88;;
1402;SDS011;696;48.546;9.896;2023-03-01T01:58:15;34.53;;;14.63;;
1402;SDS011;696;48.546;9.896;2023-03-01T02:00:43;35.67;;;14.98;;
1402;SDS011;696;48.546;9.896;2023-03-01T02:03:13;31.15;;;14.55;;
1402;SDS011;696;48.546;9.896;2023-03-01T02:08:14;26.88;;;14.48;;
1402;SDS011;696;48.546;9.896;2023-03-01T02:10:42;31.27;;;13.43;;
1402;SDS011;696;48.546;9.896;2023-03-01T02:13:07;27.83;;;14.10;;
1402;SDS011;696;48.546;9.896;2023-03-01T02:15:34;27.83;;;14.75;;
1402;SDS011;696;48.546;9.896;2023-03-01T02:18:01;28.50;;;15.32;;
1402;SDS011;696;48.546;9.896;2023-03-01T02:22:59;22.98;;;14.07;;
1402;SDS011;696;48.546;9.896;2023-03-01T02:25:31;26.52;;;15.20;;
1402;SDS011;696;48.546;9.896;2023-03-01T02:28:10;25.08;;;14.10;;
1402;SDS011;696;48.546;9.896;2023-03-01T02:30:43;31.88;;;14.63;;
1402;SDS011;696;48.546;9.896;2023-03-01T02:33:29;24.15;;;14.40;;
1402;SDS011;696;48.546;9.896;2023-03-01T02:35:57;33.45;;;14.98;;
1402;SDS011;696;48.546;9.896;2023-03-01T02:38:24;22.17;;;14.23;;
1402;SDS011;696;48.546;9.896;2023-03-01T02:40:49;26.17;;;14.30;;
1402;SDS011;696;48.546;9.896;2023-03-01T02:43:15;26.10;;;13.75;;
1402;SDS011;696;48.546;9.896;2023-03-01T02:45:51;31.50;;;15.23;;
1402;SDS011;696;48.546;9.896;2023-03-01T02:48:18;25.65;;;14.27;;
1402;SDS011;696;48.546;9.896;2023-03-01T02:50:52;29.50;;;15.02;;
1402;SDS011;696;48.546;9.896;2023-03-01T02:56:20;31.83;;;14.73;;
1402;SDS011;696;48.546;9.896;2023-03-01T02:58:45;24.13;;;13.43;;
1402;SDS011;696;48.546;9.896;2023-03-01T03:01:13;28.65;;;16.02;;
1402;SDS011;696;48.546;9.896;2023-03-01T03:03:40;27.83;;;15.02;;
1402;SDS011;696;48.546;9.896;2023-03-01T03:06:05;41.90;;;16.60;;
1402;SDS011;696;48.546;9.896;2023-03-01T03:08:31;31.45;;;14.77;;
1402;SDS011;696;48.546;9.896;2023-03-01T03:10:56;27.17;;;14.95;;
1402;SDS011;696;48.546;9.896;2023-03-01T03:13:22;28.75;;;14.68;;
1402;SDS011;696;48.546;9.896;2023-03-01T03:15:47;21.25;;;13.88;;
1402;SDS011;696;48.546;9.896;2023-03-01T03:18:13;27.35;;;15.95;;
1402;SDS011;696;48.546;9.896;2023-03-01T03:20:41;26.83;;;14.90;;
1402;SDS011;696;48.546;9.896;2023-03-01T03:23:07;35.13;;;14.68;;
1402;SDS011;696;48.546;9.896;2023-03-01T03:25:32;22.15;;;13.90;;
1402;SDS011;696;48.546;9.896;2023-03-01T03:28:02;31.88;;;15.57;;
1402;SDS011;696;48.546;9.896;2023-03-01T03:30:34;24.80;;;14.63;;
1402;SDS011;696;48.546;9.896;2023-03-01T03:33:00;24.25;;;14.88;;
1402;SDS011;696;48.546;9.896;2023-03-01T03:35:26;25.95;;;14.43;;
1402;SDS011;696;48.546;9.896;2023-03-01T03:37:56;24.02;;;14.38;;
1402;SDS011;696;48.546;9.896;2023-03-01T03:40:35;26.67;;;14.77;;
1402;SDS011;696;48.546;9.896;2023-03-01T03:43:03;28.75;;;16.17;;
1402;SDS011;696;48.546;9.896;2023-03-01T03:45:30;35.47;;;14.75;;
1402;SDS011;696;48.546;9.896;2023-03-01T03:47:58;36.20;;;16.05;;
1402;SDS011;696;48.546;9.896;2023-03-01T03:50:27;38.00;;;16.63;;
1402;SDS011;696;48.546;9.896;2023-03-01T03:52:52;28.38;;;15.70;;
1402;SDS011;696;48.546;9.896;2023-03-01T03:55:18;29.20;;;16.50;;
1402;SDS011;696;48.546;9.896;2023-03-01T03:57:44;29.85;;;15.77;;
1402;SDS011;696;48.546;9.896;2023-03-01T04:00:16;33.22;;;16.30;;
1402;SDS011;696;48.546;9.896;2023-03-01T04:02:43;31.42;;;14.30;;
1402;SDS011;696;48.546;9.896;2023-03-01T04:05:10;22.70;;;13.82;;
1402;SDS011;696;48.546;9.896;2023-03-01T04:07:37;23.52;;;14.18;;
1402;SDS011;696;48.546;9.896;2023-03-01T04:10:07;30.55;;;16.20;;
1402;SDS011;696;48.546;9.896;2023-03-01T04:12:35;26.33;;;14.82;;
1402;SDS011;696;48.546;9.896;2023-03-01T04:15:01;32.92;;;14.90;;
1402;SDS011;696;48.546;9.896;2023-03-01T04:17:37;28.58;;;15.38;;
1402;SDS011;696;48.546;9.896;2023-03-01T04:20:04;35.28;;;15.73;;
1402;SDS011;696;48.546;9.896;2023-03-01T04:22:30;27.38;;;15.32;;
1402;SDS011;696;48.546;9.896;2023-03-01T04:24:57;35.70;;;14.60;;
1402;SDS011;696;48.546;9.896;2023-03-01T04:27:23;33.53;;;15.77;;
1402;SDS011;696;48.546;9.896;2023-03-01T04:29:48;28.42;;;15.85;;
1402;SDS011;696;48.546;9.896;2023-03-01T04:32:13;26.30;;;14.40;;
1402;SDS011;696;48.546;9.896;2023-03-01T04:34:41;29.70;;;15.55;;
1402;SDS011;696;48.546;9.896;2023-03-01T04:37:06;31.48;;;15.32;;
1402;SDS011;696;48.546;9.896;2023-03-01T04:39:31;25.02;;;14.43;;
1402;SDS011;696;48.546;9.896;2023-03-01T04:41:57;28.20;;;15.60;;
1402;SDS011;696;48.546;9.896;2023-03-01T04:44:22;24.05;;;14.75;;
1402;SDS011;696;48.546;9.896;2023-03-01T04:46:48;29.35;;;15.40;;
1402;SDS011;696;48.546;9.896;2023-03-01T04:49:14;29.17;;;14.80;;
1402;SDS011;696;48.546;9.896;2023-03-01T04:51:40;28.77;;;14.05;;
1402;SDS011;696;48.546;9.896;2023-03-01T04:54:06;25.05;;;14.55;;
1402;SDS011;696;48.546;9.896;2023-03-01T04:56:33;23.95;;;14.43;;
1402;SDS011;696;48.546;9.896;2023-03-01T04:58:59;32.50;;;16.30;;
1402;SDS011;696;48.546;9.896;2023-03-01T05:01:25;35.25;;;16.55;;
1402;SDS011;696;48.546;9.896;2023-03-01T05:03:51;27.90;;;15.00;;
1402;SDS011;696;48.546;9.896;2023-03-01T05:06:17;26.60;;;15.07;;
1402;SDS011;696;48.546;9.896;2023-03-01T05:08:43;27.20;;;14.90;;
1402;SDS011;696;48.546;9.896;2023-03-01T05:11:08;24.13;;;15.00;;
1402;SDS011;696;48.546;9.896;2023-03-01T05:13:34;29.23;;;14.95;;
1402;SDS011;696;48.546;9.896;2023-03-01T05:16:01;26.80;;;15.35;;
1402;SDS011;696;48.546;9.896;2023-03-01T05:18:28;32.00;;;17.15;;
1402;SDS011;696;48.546;9.896;2023-03-01T05:20:55;29.17;;;17.15;;
1402;SDS011;696;48.546;9.896;2023-03-01T05:23:23;33.42;;;16.63;;
1402;SDS011;696;48.546;9.896;2023-03-01T05:25:49;32.30;;;16.92;;
1402;SDS011;696;48.546;9.896;2023-03-01T05:28:17;32.60;;;17.00;;
1402;SDS011;696;48.546;9.896;2023-03-01T05:30:44;40.00;;;17.58;;
1402;SDS011;696;48.546;9.896;2023-03-01T05:33:09;32.78;;;17.60;;
1402;SDS011;696;48.546;9.896;2023-03-01T05:35:38;30.45;;;16.58;;
1402;SDS011;696;48.546;9.896;2023-03-01T05:38:04;39.88;;;17.05;;
1402;SDS011;696;48.546;9.896;2023-03-01T05:40:29;39.15;;;18.08;;
1402;SDS011;696;48.546;9.896;2023-03-01T05:42:56;30.65;;;16.52;;
1402;SDS011;696;48.546;9.896;2023-03-01T05:45:22;28.20;;;17.38;;
1402;SDS011;696;48.546;9.896;2023-03-01T05:47:49;31.95;;;18.08;;
1402;SDS011;696;48.546;9.896;2023-03-01T05:50:19;40.85;;;17.35;;
1402;SDS011;696;48.546;9.896;2023-03-01T05:52:50;31.17;;;17.15;;
1402;SDS011;696;48.546;9.896;2023-03-01T05:55:17;36.78;;;19.85;;
1402;SDS011;696;48.546;9.896;2023-03-01T05:57:44;34.58;;;17.92;;
1402;SDS011;696;48.546;9.896;2023-03-01T06:00:11;33.25;;;17.55;;
1402;SDS011;696;48.546;9.896;2023-03-01T06:02:37;38.17;;;19.75;;
1402;SDS011;696;48.546;9.896;2023-03-01T06:05:03;34.45;;;17.48;;
1402;SDS011;696;48.546;9.896;2023-03-01T06:07:33;36.38;;;18.48;;
1402;SDS011;696;48.546;9.896;2023-03-01T06:09:58;37.30;;;19.67;;
1402;SDS011;696;48.546;9.896;2023-03-01T06:12:23;38.33;;;18.77;;
1402;SDS011;696;48.546;9.896;2023-03-01T06:14:49;38.75;;;18.17;;
1402;SDS011;696;48.546;9.896;2023-03-01T06:17:14;51.63;;;19.88;;
1402;SDS011;696;48.546;9.896;2023-03-01T06:19:39;34.15;;;18.08;;
1402;SDS011;696;48.546;9.896;2023-03-01T06:22:05;39.63;;;19.08;;
1402;SDS011;696;48.546;9.896;2023-03-01T06:24:30;42.67;;;18.42;;
1402;SDS011;696;48.546;9.896;2023-03-01T06:26:56;35.35;;;18.10;;
1402;SDS011;696;48.546;9.896;2023-03-01T06:29:21;38.78;;;18.88;;
1402;SDS011;696;48.546;9.896;2023-03-01T06:31:47;31.83;;;17.90;;
1402;SDS011;696;48.546;9.896;2023-03-01T06:34:13;36.55;;;19.13;;
1402;SDS011;696;48.546;9.896;2023-03-01T06:36:39;32.95;;;17.90;;
1402;SDS011;696;48.546;9.896;2023-03-01T06:39:04;34.67;;;17.17;;
1402;SDS011;696;48.546;9.896;2023-03-01T06:41:30;32.78;;;18.00;;
1402;SDS011;696;48.546;9.896;2023-03-01T06:43:56;30.42;;;17.08;;
1402;SDS011;696;48.546;9.896;2023-03-01T06:46:21;37.33;;;19.52;;
1402;SDS011;696;48.546;9.896;2023-03-01T06:48:47;29.77;;;17.65;;
1402;SDS011;696;48.546;9.896;2023-03-01T06:51:12;38.35;;;18.52;;
1402;SDS011;696;48.546;9.896;2023-03-01T06:53:38;36.65;;;18.75;;
1402;SDS011;696;48.546;9.896;2023-03-01T06:56:03;41.35;;;19.10;;
1402;SDS011;696;48.546;9.896;2023-03-01T06:58:29;34.95;;;17.83;;
1402;SDS011;696;48.546;9.896;2023-03-01T07:00:54;41.30;;;19.95;;
1402;SDS011;696;48.546;9.896;2023-03-01T07:03:19;39.05;;;19.05;;
1402;SDS011;696;48.546;9.896;2023-03-01T07:05:45;38.15;;;18.77;;
1402;SDS011;696;48.546;9.896;2023-03-01T07:08:10;48.40;;;18.60;;
1402;SDS011;696;48.546;9.896;2023-03-01T07:10:35;32.75;;;17.73;;
1402;SDS011;696;48.546;9.896;2023-03-01T07:13:01;34.60;;;17.85;;
1402;SDS011;696;48.546;9.896;2023-03-01T07:15:26;31.77;;;18.30;;
1402;SDS011;696;48.546;9.896;2023-03-01T07:17:53;30.15;;;16.85;;
1402;SDS011;696;48.546;9.896;2023-03-01T07:20:19;37.97;;;16.70;;
1402;SDS011;696;48.546;9.896;2023-03-01T07:22:49;31.60;;;16.80;;
1402;SDS011;696;48.546;9.896;2023-03-01T07:25:15;33.65;;;15.60;;
1402;SDS011;696;48.546;9.896;2023-03-01T07:27:40;29.00;;;17.85;;
1402;SDS011;696;48.546;9.896;2023-03-01T07:30:06;30.02;;;17.58;;
1402;SDS011;696;48.546;9.896;2023-03-01T07:32:31;29.42;;;16.95;;
1402;SDS011;696;48.546;9.896;2023-03-01T07:34:57;28.55;;;16.15;;
1402;SDS011;696;48.546;9.896;2023-03-01T07:37:22;39.50;;;16.55;;
1402;SDS011;696;48.546;9.896;2023-03-01T07:39:47;27.80;;;15.80;;
1402;SDS011;696;48.546;9.896;2023-03-01T07:42:13;31.20;;;15.75;;
1402;SDS011;696;48.546;9.896;2023-03-01T07:44:38;34.65;;;16.10;;
1402;SDS011;696;48.546;9.896;2023-03-01T07:47:03;28.70;;;16.55;;
1402;SDS011;696;48.546;9.896;2023-03-01T07:49:29;30.30;;;16.17;;
1402;SDS011;696;48.546;9.896;2023-03-01T07:51:54;30.77;;;17.70;;
1402;SDS011;696;48.546;9.896;2023-03-01T07:54:20;33.60;;;16.55;;
1402;SDS011;696;48.546;9.896;2023-03-01T07:56:45;29.65;;;16.05;;
1402;SDS011;696;48.546;9.896;2023-03-01T07:59:10;28.02;;;15.32;;
1402;SDS011;696;48.546;9.896;2023-03-01T08:01:36;33.67;;;16.45;;
1402;SDS011;696;48.546;9.896;2023-03-01T08:04:01;32.38;;;17.00;;
1402;SDS011;696;48.546;9.896;2023-03-01T08:06:27;27.05;;;15.93;;
1402;SDS011;696;48.546;9.896;2023-03-01T08:08:52;30.35;;;16.30;;
1402;SDS011;696;48.546;9.896;2023-03-01T08:11:20;34.05;;;16.58;;
1402;SDS011;696;48.546;9.896;2023-03-01T08:13:47;30.40;;;16.85;;
1402;SDS011;696;48.546;9.896;2023-03-01T08:16:14;35.83;;;15.55;;
1402;SDS011;696;48.546;9.896;2023-03-01T08:18:40;29.83;;;16.70;;
1402;SDS011;696;48.546;9.896;2023-03-01T08:21:07;25.38;;;15.10;;
1402;SDS011;696;48.546;9.896;2023-03-01T08:23:34;26.05;;;15.73;;
1402;SDS011;696;48.546;9.896;2023-03-01T08:26:09;29.73;;;15.00;;
1402;SDS011;696;48.546;9.896;2023-03-01T08:28:39;30.05;;;15.52;;
1402;SDS011;696;48.546;9.896;2023-03-01T08:31:21;29.95;;;14.65;;
1402;SDS011;696;48.546;9.896;2023-03-01T08:36:16;31.27;;;16.05;;
1402;SDS011;696;48.546;9.896;2023-03-01T08:38:42;41.90;;;16.08;;
1402;SDS011;696;48.546;9.896;2023-03-01T08:41:07;32.28;;;14.90;;
1402;SDS011;696;48.546;9.896;2023-03-01T08:43:33;50.20;;;16.63;;
1402;SDS011;696;48.546;9.896;2023-03-01T08:45:58;32.40;;;16.67;;
1402;SDS011;696;48.546;9.896;2023-03-01T08:48:24;29.30;;;14.82;;
1402;SDS011;696;48.546;9.896;2023-03-01T08:50:49;29.48;;;15.05;;
1402;SDS011;696;48.546;9.896;2023-03-01T08:53:15;27.35;;;16.27;;
1402;SDS011;696;48.546;9.896;2023-03-01T08:55:40;33.63;;;16.17;;
1402;SDS011;696;48.546;9.896;2023-03-01T08:58:06;35.13;;;15.88;;
1402;SDS011;696;48.546;9.896;2023-03-01T09:00:31;33.88;;;15.57;;
1402;SDS011;696;48.546;9.896;2023-03-01T09:02:59;33.90;;;16.75;;
1402;SDS011;696;48.546;9.896;2023-03-01T09:05:24;26.92;;;16.42;;
1402;SDS011;696;48.546;9.896;2023-03-01T09:07:50;26.38;;;14.90;;
1402;SDS011;696;48.546;9.896;2023-03-01T09:10:15;29.25;;;15.70;;
1402;SDS011;696;48.546;9.896;2023-03-01T09:12:41;28.55;;;15.75;;
1402;SDS011;696;48.546;9.896;2023-03-01T09:15:06;24.55;;;13.90;;
1402;SDS011;696;48.546;9.896;2023-03-01T09:17:32;26.63;;;15.88;;
1402;SDS011;696;48.546;9.896;2023-03-01T09:19:57;24.75;;;14.60;;
1402;SDS011;696;48.546;9.896;2023-03-01T09:22:23;31.95;;;16.02;;
1402;SDS011;696;48.546;9.896;2023-03-01T09:24:49;28.05;;;15.88;;
1402;SDS011;696;48.546;9.896;2023-03-01T09:27:14;25.30;;;14.65;;
1402;SDS011;696;48.546;9.896;2023-03-01T09:29:43;29.63;;;16.05;;
1402;SDS011;696;48.546;9.896;2023-03-01T09:32:09;33.65;;;15.30;;
1402;SDS011;696;48.546;9.896;2023-03-01T09:34:34;28.83;;;15.05;;
1402;SDS011;696;48.546;9.896;2023-03-01T09:37:20;24.23;;;14.88;;
1402;SDS011;696;48.546;9.896;2023-03-01T09:39:45;26.42;;;14.90;;
1402;SDS011;696;48.546;9.896;2023-03-01T09:42:11;30.05;;;16.27;;
1402;SDS011;696;48.546;9.896;2023-03-01T09:44:42;31.08;;;15.93;;
1402;SDS011;696;48.546;9.896;2023-03-01T09:47:21;28.40;;;14.60;;
1402;SDS011;696;48.546;9.896;2023-03-01T09:52:41;29.67;;;15.48;;
1402;SDS011;696;48.546;9.896;2023-03-01T09:55:10;39.33;;;15.65;;
1402;SDS011;696;48.546;9.896;2023-03-01T09:57:49;25.03;;;14.60;;
1402;SDS011;696;48.546;9.896;2023-03-01T10:03:13;27.10;;;15.25;;
1402;SDS011;696;48.546;9.896;2023-03-01T10:10:56;25.05;;;13.65;;
1402;SDS011;696;48.546;9.896;2023-03-01T10:13:43;30.15;;;15.48;;
1402;SDS011;696;48.546;9.896;2023-03-01T10:16:15;26.27;;;14.80;;
1402;SDS011;696;48.546;9.896;2023-03-01T10:18:43;25.95;;;14.70;;
1402;SDS011;696;48.546;9.896;2023-03-01T10:21:17;32.90;;;15.63;;
1402;SDS011;696;48.546;9.896;2023-03-01T10:23:44;27.55;;;15.18;;
1402;SDS011;696;48.546;9.896;2023-03-01T10:31:19;25.10;;;14.90;;
1402;SDS011;696;48.546;9.896;2023-03-01T10:33:47;28.00;;;14.32;;
1402;SDS011;696;48.546;9.896;2023-03-01T10:36:16;29.02;;;15.07;;
1402;SDS011;696;48.546;9.896;2023-03-01T10:38:52;31.40;;;15.75;;
1402;SDS011;696;48.546;9.896;2023-03-01T10:41:19;20.98;;;13.43;;
1402;SDS011;696;48.546;9.896;2023-03-01T10:43:49;31.80;;;14.20;;
1402;SDS011;696;48.546;9.896;2023-03-01T10:51:46;27.25;;;13.65;;
1402;SDS011;696;48.546;9.896;2023-03-01T10:54:26;25.23;;;13.65;;
1402;SDS011;696;48.546;9.896;2023-03-01T10:56:54;21.83;;;13.77;;
1402;SDS011;696;48.546;9.896;2023-03-01T10:59:37;30.08;;;15.30;;
1402;SDS011;696;48.546;9.896;2023-03-01T11:05:02;24.73;;;13.80;;
1402;SDS011;696;48.546;9.896;2023-03-01T11:07:47;25.70;;;13.75;;
1402;SDS011;696;48.546;9.896;2023-03-01T11:10:16;26.85;;;14.45;;
1402;SDS011;696;48.546;9.896;2023-03-01T11:12:43;19.70;;;12.63;;
1402;SDS011;696;48.546;9.896;2023-03-01T11:15:15;23.73;;;14.18;;
1402;SDS011;696;48.546;9.896;2023-03-01T11:17:45;24.10;;;14.00;;
1402;SDS011;696;48.546;9.896;2023-03-01T11:22:45;24.10;;;13.43;;
1402;SDS011;696;48.546;9.896;2023-03-01T11:27:40;27.23;;;13.45;;
1402;SDS011;696;48.546;9.896;2023-03-01T11:30:18;21.08;;;13.55;;
1402;SDS011;696;48.546;9.896;2023-03-01T11:32:47;23.98;;;13.57;;
1402;SDS011;696;48.546;9.896;2023-03-01T11:35:22;19.65;;;12.27;;
1402;SDS011;696;48.546;9.896;2023-03-01T11:43:40;23.77;;;13.43;;
1402;SDS011;696;48.546;9.896;2023-03-01T11:52:31;22.23;;;12.10;;
1402;SDS011;696;48.546;9.896;2023-03-01T12:17:16;16.88;;;11.20;;
1402;SDS011;696;48.546;9.896;2023-03-01T12:22:35;18.85;;;11.98;;
1402;SDS011;696;48.546;9.896;2023-03-01T12:25:16;17.15;;;10.38;;
1402;SDS011;696;48.546;9.896;2023-03-01T12:30:59;17.30;;;11.55;;
1402;SDS011;696;48.546;9.896;2023-03-01T12:33:34;21.38;;;12.68;;
1402;SDS011;696;48.546;9.896;2023-03-01T12:41:35;18.85;;;10.98;;
1402;SDS011;696;48.546;9.896;2023-03-01T12:47:00;17.13;;;9.57;;
1402;SDS011;696;48.546;9.896;2023-03-01T12:49:28;13.63;;;9.65;;
1402;SDS011;696;48.546;9.896;2023-03-01T12:52:00;16.23;;;10.35;;
1402;SDS011;696;48.546;9.896;2023-03-01T12:54:33;18.77;;;10.20;;
1402;SDS011;696;48.546;9.896;2023-03-01T12:57:03;20.00;;;10.35;;
1402;SDS011;696;48.546;9.896;2023-03-01T13:08:07;17.10;;;10.35;;
1402;SDS011;696;48.546;9.896;2023-03-01T13:10:45;16.48;;;10.00;;
1402;SDS011;696;48.546;9.896;2023-03-01T13:15:43;17.35;;;10.00;;
1402;SDS011;696;48.546;9.896;2023-03-01T13:23:28;13.70;;;10.20;;
1402;SDS011;696;48.546;9.896;2023-03-01T13:38:56;19.85;;;10.88;;
1402;SDS011;696;48.546;9.896;2023-03-01T13:46:47;17.95;;;10.63;;
1402;SDS011;696;48.546;9.896;2023-03-01T13:49:17;18.00;;;9.40;;
1402;SDS011;696;48.546;9.896;2023-03-01T13:51:48;18.38;;;10.68;;
1402;SDS011;696;48.546;9.896;2023-03-01T13:54:15;16.90;;;9.93;;
1402;SDS011;696;48.546;9.896;2023-03-01T13:56:41;14.88;;;9.82;;
1402;SDS011;696;48.546;9.896;2023-03-01T13:59:16;16.30;;;9.70;;
1402;SDS011;696;48.546;9.896;2023-03-01T14:01:43;18.10;;;10.23;;
1402;SDS011;696;48.546;9.896;2023-03-01T14:04:25;13.70;;;9.80;;
1402;SDS011;696;48.546;9.896;2023-03-01T14:07:08;18.20;;;9.93;;
1402;SDS011;696;48.546;9.896;2023-03-01T14:09:44;17.80;;;9.50;;
1402;SDS011;696;48.546;9.896;2023-03-01T14:15:32;13.75;;;9.23;;
1402;SDS011;696;48.546;9.896;2023-03-01T14:20:39;13.15;;;9.02;;
1402;SDS011;696;48.546;9.896;2023-03-01T14:23:10;14.95;;;9.02;;
1402;SDS011;696;48.546;9.896;2023-03-01T14:25:51;16.40;;;9.32;;
1402;SDS011;696;48.546;9.896;2023-03-01T14:28:18;15.25;;;9.43;;
1402;SDS011;696;48.546;9.896;2023-03-01T14:30:55;14.48;;;9.50;;
1402;SDS011;696;48.546;9.896;2023-03-01T14:35:55;11.27;;;8.43;;
1402;SDS011;696;48.546;9.896;2023-03-01T14:38:41;11.27;;;8.38;;
1402;SDS011;696;48.546;9.896;2023-03-01T14:43:37;14.05;;;9.18;;
1402;SDS011;696;48.546;9.896;2023-03-01T14:46:03;14.23;;;9.95;;
1402;SDS011;696;48.546;9.896;2023-03-01T14:48:28;12.52;;;9.52;;
1402;SDS011;696;48.546;9.896;2023-03-01T14:50:54;16.13;;;10.10;;
1402;SDS011;696;48.546;9.896;2023-03-01T14:53:21;13.75;;;10.15;;
1402;SDS011;696;48.546;9.896;2023-03-01T14:55:55;18.70;;;10.10;;
1402;SDS011;696;48.546;9.896;2023-03-01T14:58:24;17.30;;;9.55;;
1402;SDS011;696;48.546;9.896;2023-03-01T15:00:54;15.65;;;9.52;;
1402;SDS011;696;48.546;9.896;2023-03-01T15:05:58;12.65;;;8.77;;
1402;SDS011;696;48.546;9.896;2023-03-01T15:08:25;11.95;;;9.02;;
1402;SDS011;696;48.546;9.896;2023-03-01T15:10:59;13.13;;;9.38;;
1402;SDS011;696;48.546;9.896;2023-03-01T15:13:43;18.98;;;9.50;;
1402;SDS011;696;48.546;9.896;2023-03-01T15:16:12;13.50;;;8.65;;
1402;SDS011;696;48.546;9.896;2023-03-01T15:18:46;19.55;;;10.13;;
1402;SDS011;696;48.546;9.896;2023-03-01T15:21:21;16.42;;;10.65;;
1402;SDS011;696;48.546;9.896;2023-03-01T15:23:52;16.15;;;10.15;;
1402;SDS011;696;48.546;9.896;2023-03-01T15:26:30;22.75;;;9.38;;
1402;SDS011;696;48.546;9.896;2023-03-01T15:28:57;19.58;;;9.32;;
1402;SDS011;696;48.546;9.896;2023-03-01T15:31:24;20.70;;;10.80;;
1402;SDS011;696;48.546;9.896;2023-03-01T15:33:51;16.33;;;9.63;;
1402;SDS011;696;48.546;9.896;2023-03-01T15:36:31;18.05;;;9.45;;
1402;SDS011;696;48.546;9.896;2023-03-01T15:39:00;13.02;;;8.48;;
1402;SDS011;696;48.546;9.896;2023-03-01T15:41:30;16.00;;;9.43;;
1402;SDS011;696;48.546;9.896;2023-03-01T15:44:26;17.30;;;9.68;;
1402;SDS011;696;48.546;9.896;2023-03-01T15:46:54;15.02;;;9.25;;
1402;SDS011;696;48.546;9.896;2023-03-01T15:49:36;16.98;;;10.20;;
1402;SDS011;696;48.546;9.896;2023-03-01T15:52:04;20.60;;;8.90;;
1402;SDS011;696;48.546;9.896;2023-03-01T15:54:31;16.85;;;9.68;;
1402;SDS011;696;48.546;9.896;2023-03-01T15:56:56;22.50;;;9.98;;
1402;SDS011;696;48.546;9.896;2023-03-01T15:59:22;17.52;;;10.43;;
1402;SDS011;696;48.546;9.896;2023-03-01T16:01:47;18.13;;;9.52;;
1402;SDS011;696;48.546;9.896;2023-03-01T16:04:14;18.35;;;10.40;;
1402;SDS011;696;48.546;9.896;2023-03-01T16:06:52;18.63;;;9.65;;
1402;SDS011;696;48.546;9.896;2023-03-01T16:09:24;15.68;;;9.27;;
1402;SDS011;696;48.546;9.896;2023-03-01T16:11:50;21.50;;;10.65;;
1402;SDS011;696;48.546;9.896;2023-03-01T16:14:16;16.40;;;9.88;;
1402;SDS011;696;48.546;9.896;2023-03-01T16:16:42;17.60;;;9.93;;
1402;SDS011;696;48.546;9.896;2023-03-01T16:19:08;19.35;;;10.07;;
1402;SDS011;696;48.546;9.896;2023-03-01T16:21:33;19.00;;;9.95;;
1402;SDS011;696;48.546;9.896;2023-03-01T16:23:59;21.58;;;10.95;;
1402;SDS011;696;48.546;9.896;2023-03-01T16:26:25;17.60;;;10.50;;
1402;SDS011;696;48.546;9.896;2023-03-01T16:28:53;23.48;;;12.38;;
1402;SDS011;696;48.546;9.896;2023-03-01T16:31:19;40.00;;;18.80;;
1402;SDS011;696;48.546;9.896;2023-03-01T16:33:45;23.90;;;13.93;;
1402;SDS011;696;48.546;9.896;2023-03-01T16:36:18;19.98;;;10.32;;
1402;SDS011;696;48.546;9.896;2023-03-01T16:38:48;17.02;;;10.35;;
1402;SDS011;696;48.546;9.896;2023-03-01T16:41:16;17.70;;;11.13;;
1402;SDS011;696;48.546;9.896;2023-03-01T16:43:42;19.15;;;10.77;;
1402;SDS011;696;48.546;9.896;2023-03-01T16:46:09;22.15;;;10.73;;
1402;SDS011;696;48.546;9.896;2023-03-01T16:48:35;22.67;;;10.98;;
1402;SDS011;696;48.546;9.896;2023-03-01T16:51:01;24.67;;;11.18;;
1402;SDS011;696;48.546;9.896;2023-03-01T16:53:27;21.08;;;10.68;;
1402;SDS011;696;48.546;9.896;2023-03-01T16:55:54;19.30;;;10.40;;
1402;SDS011;696;48.546;9.896;2023-03-01T16:58:20;25.52;;;10.98;;
1402;SDS011;696;48.546;9.896;2023-03-01T17:00:45;18.95;;;11.57;;
1402;SDS011;696;48.546;9.896;2023-03-01T17:03:10;28.75;;;12.82;;
1402;SDS011;696;48.546;9.896;2023-03-01T17:05:39;24.38;;;12.95;;
1402;SDS011;696;48.546;9.896;2023-03-01T17:08:05;24.08;;;12.52;;
1402;SDS011;696;48.546;9.896;2023-03-01T17:10:30;21.92;;;11.32;;
1402;SDS011;696;48.546;9.896;2023-03-01T17:12:57;18.65;;;11.45;;
1402;SDS011;696;48.546;9.896;2023-03-01T17:15:23;23.05;;;11.10;;
1402;SDS011;696;48.546;9.896;2023-03-01T17:17:48;28.15;;;11.45;;
1402;SDS011;696;48.546;9.896;2023-03-01T17:20:16;18.55;;;10.90;;
1402;SDS011;696;48.546;9.896;2023-03-01T17:22:41;23.42;;;11.20;;
1402;SDS011;696;48.546;9.896;2023-03-01T17:25:07;25.98;;;10.80;;